Time;durP1;ratioP1;P1;durP2;ratioP2;P2;SDS_P1;SDS_P2;PMS_P1;PMS_P2;Temp;Humidity;BMP_temperature;BMP_pressure;BME280_temperature;BME280_humidity;BME280_pressure;Samples;Min_cycle;Max_cycle;Signal;HPM_P1;HPM_P2
2022/12/03 00:02:15;;;;;;;18.50;14.23;;;4.30;99.90;;;;;;5030057;28;20466;-66
2022/12/03 00:04:40;;;;;;;19.70;14.37;;;5.10;99.90;;;;;;5031207;28;20273;-64
2022/12/03 00:07:06;;;;;;;21.57;15.10;;;5.00;99.90;;;;;;5039309;28;20209;-66
2022/12/03 00:09:32;;;;;;;23.03;14.47;;;4.90;99.90;;;;;;5028538;28;20301;-66
2022/12/03 00:11:58;;;;;;;21.20;14.90;;;5.00;99.90;;;;;;5033056;28;20193;-66
2022/12/03 00:14:23;;;;;;;22.30;14.77;;;4.80;99.90;;;;;;5030273;28;20450;-66
2022/12/03 00:16:49;;;;;;;20.07;15.27;;;4.70;99.90;;;;;;5030962;28;20657;-66
2022/12/03 00:19:14;;;;;;;20.07;15.73;;;4.60;99.90;;;;;;5033040;28;20682;-66
2022/12/03 00:21:40;;;;;;;22.70;14.97;;;4.90;99.90;;;;;;5030605;28;20384;-67
2022/12/03 00:24:06;;;;;;;21.53;16.17;;;4.70;99.90;;;;;;5029693;28;20226;-67
2022/12/03 00:26:32;;;;;;;22.67;14.65;;;4.60;99.90;;;;;;5031856;28;20210;-65
2022/12/03 00:28:57;;;;;;;21.63;13.40;;;4.70;99.90;;;;;;5032409;28;20176;-66
2022/12/03 00:31:24;;;;;;;18.30;14.30;;;4.70;99.90;;;;;;5032178;28;20184;-65
2022/12/03 00:33:51;;;;;;;23.15;15.20;;;4.60;99.90;;;;;;5031995;28;20199;-65
2022/12/03 00:36:17;;;;;;;22.05;15.90;;;4.70;99.90;;;;;;5033125;28;20181;-67
2022/12/03 00:38:43;;;;;;;19.73;15.05;;;4.50;99.90;;;;;;5030828;28;20195;-67
2022/12/03 00:41:08;;;;;;;23.77;16.27;;;4.50;99.90;;;;;;5032637;28;20187;-67
2022/12/03 00:43:34;;;;;;;20.10;14.90;;;4.50;99.90;;;;;;5032473;28;20200;-67
2022/12/03 00:46:00;;;;;;;21.90;15.90;;;4.30;99.90;;;;;;5031686;28;20207;-66
2022/12/03 00:48:26;;;;;;;23.30;15.00;;;4.30;99.90;;;;;;5032148;28;20188;-66
2022/12/03 00:50:51;;;;;;;23.37;15.23;;;4.10;99.90;;;;;;5027919;28;20696;-66
2022/12/03 00:53:17;;;;;;;22.10;14.80;;;4.30;99.90;;;;;;5032297;28;20438;-66
2022/12/03 00:55:43;;;;;;;23.75;15.00;;;4.10;99.90;;;;;;5031989;28;20269;-66
2022/12/03 00:58:09;;;;;;;20.77;15.37;;;4.00;99.90;;;;;;5030921;28;20209;-66
2022/12/03 01:00:36;;;;;;;23.35;15.55;;;4.30;99.90;;;;;;5031835;28;20211;-66
2022/12/03 01:03:02;;;;;;;20.90;14.75;;;4.10;99.90;;;;;;5031006;28;20209;-66
2022/12/03 01:05:27;;;;;;;18.20;13.35;;;4.20;99.90;;;;;;5031468;28;20207;-66
2022/12/03 01:07:53;;;;;;;20.87;14.50;;;4.40;99.90;;;;;;5031150;28;20202;-66
2022/12/03 01:10:19;;;;;;;22.00;14.13;;;4.30;99.90;;;;;;5030651;28;20589;-66
2022/12/03 01:12:45;;;;;;;22.13;14.23;;;4.10;99.90;;;;;;5029030;28;20186;-66
2022/12/03 01:15:11;;;;;;;19.20;14.13;;;4.50;99.90;;;;;;5031410;28;20236;-66
2022/12/03 01:17:37;;;;;;;19.08;13.95;;;4.60;99.90;;;;;;5030496;28;20525;-66
2022/12/03 01:20:05;;;;;;;16.57;12.63;;;4.60;99.90;;;;;;5030951;28;20275;-66
2022/12/03 01:22:31;;;;;;;16.63;12.40;;;4.90;99.90;;;;;;5025598;28;20184;-66
2022/12/03 01:24:57;;;;;;;17.77;13.10;;;4.70;99.90;;;;;;5030522;28;20195;-66
2022/12/03 01:27:22;;;;;;;20.03;14.53;;;5.20;99.90;;;;;;5028256;28;20242;-66
2022/12/03 01:29:48;;;;;;;21.23;13.83;;;5.10;99.90;;;;;;5031269;28;20215;-66
2022/12/03 01:32:20;;;;;;;17.77;12.90;;;4.90;99.90;;;;;;5036711;28;20450;-66
2022/12/03 01:34:48;;;;;;;18.55;13.00;;;5.00;99.90;;;;;;5024904;28;20208;-66
2022/12/03 01:37:15;;;;;;;17.70;13.20;;;5.00;99.90;;;;;;5037878;28;20194;-66
2022/12/03 01:39:41;;;;;;;20.38;14.07;;;5.00;99.90;;;;;;5030852;28;20184;-66
2022/12/03 01:42:11;;;;;;;18.03;12.53;;;5.00;99.90;;;;;;5030868;28;20680;-66
2022/12/03 01:44:38;;;;;;;17.48;12.60;;;4.90;99.90;;;;;;5038086;28;20455;-66
2022/12/03 01:47:09;;;;;;;18.00;12.75;;;5.20;99.90;;;;;;5037288;28;20226;-66
2022/12/03 01:49:45;;;;;;;17.85;13.13;;;5.00;99.90;;;;;;5035225;28;20173;-66
2022/12/03 01:52:23;;;;;;;18.50;13.35;;;5.30;99.90;;;;;;5038917;28;20594;-66
2022/12/03 01:55:00;;;;;;;20.10;13.68;;;5.10;99.90;;;;;;5045005;28;20203;-66
2022/12/03 01:57:40;;;;;;;16.05;12.13;;;5.20;99.90;;;;;;5026365;28;20230;-66
2022/12/03 02:00:07;;;;;;;17.80;13.15;;;5.20;99.90;;;;;;5025763;28;20195;-66
2022/12/03 02:02:32;;;;;;;17.20;11.60;;;5.00;99.90;;;;;;5026788;28;20200;-66
2022/12/03 02:04:59;;;;;;;14.53;11.70;;;5.10;99.90;;;;;;5030676;28;20270;-66
2022/12/03 02:07:30;;;;;;;17.33;11.95;;;5.30;99.90;;;;;;5030618;28;20484;-66
2022/12/03 02:09:59;;;;;;;17.65;12.68;;;5.10;99.90;;;;;;5032562;28;20207;-66
2022/12/03 02:12:55;;;;;;;21.45;13.45;;;5.20;99.90;;;;;;5029272;28;20196;-65
2022/12/03 02:15:21;;;;;;;15.55;11.52;;;5.40;99.90;;;;;;5023418;28;20663;-65
2022/12/03 02:17:47;;;;;;;19.65;13.25;;;5.80;99.90;;;;;;5034494;28;20648;-65
2022/12/03 02:20:13;;;;;;;18.38;12.88;;;5.40;99.90;;;;;;5030341;28;20226;-65
2022/12/03 02:22:47;;;;;;;16.75;11.88;;;5.20;99.90;;;;;;5025851;28;20230;-65
2022/12/03 02:25:19;;;;;;;16.40;12.60;;;5.80;99.90;;;;;;5036015;28;20769;-66
2022/12/03 02:27:46;;;;;;;18.00;12.73;;;5.20;99.90;;;;;;5032737;28;20188;-65
2022/12/03 02:30:15;;;;;;;16.13;12.52;;;5.20;99.90;;;;;;5037638;28;20297;-65
2022/12/03 02:32:41;;;;;;;16.25;12.35;;;5.40;99.90;;;;;;5025473;28;20189;-67
2022/12/03 02:35:16;;;;;;;16.03;11.60;;;5.40;99.90;;;;;;5030555;28;20210;-65
2022/12/03 02:37:44;;;;;;;17.10;12.85;;;5.40;99.90;;;;;;5032078;28;20520;-67
2022/12/03 02:40:13;;;;;;;16.95;11.70;;;5.60;99.90;;;;;;5031828;28;20178;-67
2022/12/03 02:42:39;;;;;;;14.75;11.80;;;5.40;99.90;;;;;;5033462;28;20187;-66
2022/12/03 02:45:13;;;;;;;16.95;12.45;;;5.50;99.90;;;;;;5046996;28;20205;-65
2022/12/03 02:47:43;;;;;;;15.20;11.35;;;5.30;99.90;;;;;;5027257;28;20191;-66
2022/12/03 02:50:11;;;;;;;15.25;11.63;;;5.30;99.90;;;;;;5030006;28;20534;-66
2022/12/03 02:52:38;;;;;;;18.52;12.38;;;5.10;99.90;;;;;;5037480;28;20192;-67
2022/12/03 02:55:05;;;;;;;16.33;11.60;;;5.40;99.90;;;;;;5030123;28;20693;-67
2022/12/03 02:57:32;;;;;;;16.10;11.35;;;5.10;99.90;;;;;;5029949;28;20210;-65
2022/12/03 02:59:58;;;;;;;14.02;10.73;;;5.30;99.90;;;;;;5030063;28;20178;-65
2022/12/03 03:02:23;;;;;;;18.13;12.37;;;5.30;99.90;;;;;;5029148;28;20189;-66
2022/12/03 03:04:49;;;;;;;14.53;11.20;;;5.30;99.90;;;;;;5029211;28;20221;-67
2022/12/03 03:07:15;;;;;;;15.75;11.38;;;5.40;99.90;;;;;;5029278;28;20611;-67
2022/12/03 03:09:41;;;;;;;15.80;11.93;;;5.30;99.90;;;;;;5033920;28;20628;-65
2022/12/03 03:12:09;;;;;;;15.57;11.73;;;5.20;99.90;;;;;;5028566;28;20272;-67
2022/12/03 03:14:34;;;;;;;16.30;11.65;;;5.50;99.90;;;;;;5028003;28;20249;-68
2022/12/03 03:17:00;;;;;;;17.30;12.20;;;5.10;99.90;;;;;;5029032;28;20188;-67
2022/12/03 03:19:26;;;;;;;14.90;11.27;;;5.80;99.90;;;;;;5029816;28;20444;-68
2022/12/03 03:21:52;;;;;;;18.03;11.93;;;5.50;99.90;;;;;;5028852;28;20734;-65
2022/12/03 03:24:19;;;;;;;16.48;11.75;;;5.20;99.90;;;;;;5029718;28;20461;-65
2022/12/03 03:26:45;;;;;;;16.88;11.48;;;5.30;99.90;;;;;;5031108;28;20213;-67
2022/12/03 03:29:11;;;;;;;14.17;11.73;;;5.40;99.90;;;;;;5029942;28;20326;-67
2022/12/03 03:31:37;;;;;;;15.43;12.48;;;5.40;99.90;;;;;;5029171;28;20502;-67
2022/12/03 03:34:03;;;;;;;14.18;11.45;;;5.40;99.90;;;;;;5029487;28;20219;-67
2022/12/03 03:36:30;;;;;;;15.53;12.27;;;5.20;99.90;;;;;;5043537;28;20188;-67
2022/12/03 03:38:55;;;;;;;16.70;13.20;;;5.80;99.90;;;;;;5028714;28;20438;-67
2022/12/03 03:41:21;;;;;;;19.13;12.20;;;5.50;99.90;;;;;;5029498;28;20597;-66
2022/12/03 03:43:49;;;;;;;16.50;11.63;;;4.90;99.90;;;;;;5028682;28;20753;-67
2022/12/03 03:46:17;;;;;;;14.68;11.25;;;5.30;99.90;;;;;;5028572;28;20220;-67
2022/12/03 03:48:42;;;;;;;18.85;12.18;;;5.40;99.90;;;;;;5029413;28;20177;-66
2022/12/03 03:51:09;;;;;;;17.95;12.60;;;5.50;99.90;;;;;;5029295;28;20529;-67
2022/12/03 03:53:39;;;;;;;17.08;11.88;;;5.30;99.90;;;;;;5028682;28;20807;-66
2022/12/03 03:56:05;;;;;;;18.77;12.85;;;5.30;99.90;;;;;;5041031;28;20195;-67
2022/12/03 03:58:31;;;;;;;18.33;12.45;;;5.00;99.90;;;;;;5029383;28;20216;-67
2022/12/03 04:00:57;;;;;;;19.47;12.83;;;5.20;99.90;;;;;;5026793;28;20187;-66
2022/12/03 04:03:23;;;;;;;14.90;11.83;;;5.40;99.90;;;;;;5032052;28;20448;-67
2022/12/03 04:05:49;;;;;;;17.13;12.10;;;5.60;99.90;;;;;;5027267;28;20215;-67
2022/12/03 04:08:15;;;;;;;15.82;12.88;;;5.40;99.90;;;;;;5026008;28;20216;-67
2022/12/03 04:13:25;;;;;;;18.50;12.80;;;5.60;99.90;;;;;;5028513;28;20772;-66
2022/12/03 04:15:51;;;;;;;15.37;12.60;;;5.50;99.90;;;;;;5032350;28;20259;-66
2022/12/03 04:23:45;;;;;;;16.08;11.18;;;5.40;99.90;;;;;;5029972;28;20210;-66
2022/12/03 04:28:54;;;;;;;16.33;11.20;;;5.40;99.90;;;;;;5030643;28;20208;-66
2022/12/03 04:36:48;;;;;;;15.90;12.05;;;5.60;99.90;;;;;;5033135;28;20199;-66
2022/12/03 04:39:14;;;;;;;16.40;12.47;;;5.60;99.90;;;;;;5029168;28;20272;-66
2022/12/03 04:41:40;;;;;;;17.40;13.03;;;5.50;99.90;;;;;;5032465;28;20188;-66
2022/12/03 04:46:50;;;;;;;20.17;13.38;;;5.60;99.90;;;;;;5031073;28;20222;-66
2022/12/03 04:49:15;;;;;;;17.20;12.63;;;5.90;99.90;;;;;;5030596;28;20179;-66
2022/12/03 04:51:41;;;;;;;19.53;13.53;;;5.60;99.90;;;;;;5032195;28;20189;-65
2022/12/03 04:54:07;;;;;;;14.37;11.83;;;5.60;99.90;;;;;;5025711;28;20200;-65
2022/12/03 04:56:32;;;;;;;17.50;12.40;;;5.70;99.90;;;;;;5029308;28;20191;-65
2022/12/03 04:58:58;;;;;;;19.87;12.90;;;5.80;99.90;;;;;;5029800;28;20662;-66
2022/12/03 05:01:24;;;;;;;17.47;12.87;;;5.70;99.90;;;;;;5025269;28;20189;-66
2022/12/03 05:03:49;;;;;;;16.67;12.90;;;5.90;99.90;;;;;;5032037;28;20630;-67
2022/12/03 05:06:15;;;;;;;15.83;13.00;;;5.60;99.90;;;;;;5026541;28;20304;-64
2022/12/03 05:08:40;;;;;;;17.73;13.27;;;5.40;99.90;;;;;;5028732;28;20642;-65
2022/12/03 05:11:06;;;;;;;17.30;12.73;;;5.40;99.90;;;;;;5029813;28;20191;-68
2022/12/03 05:13:32;;;;;;;16.97;11.23;;;5.30;99.90;;;;;;5028025;28;20927;-65
2022/12/03 05:15:57;;;;;;;19.03;13.07;;;5.20;99.90;;;;;;5028340;28;20200;-64
2022/12/03 05:18:23;;;;;;;17.53;12.33;;;5.50;99.90;;;;;;5034422;28;20670;-64
2022/12/03 05:20:49;;;;;;;18.57;13.00;;;5.30;99.90;;;;;;5034580;28;20185;-64
2022/12/03 05:23:14;;;;;;;18.53;13.03;;;5.40;99.90;;;;;;5029652;28;20633;-64
2022/12/03 05:25:40;;;;;;;17.50;13.47;;;5.40;99.90;;;;;;5030837;28;20774;-66
2022/12/03 05:28:06;;;;;;;15.80;11.73;;;5.60;99.90;;;;;;5030657;28;20234;-64
2022/12/03 05:30:32;;;;;;;17.38;11.50;;;5.60;99.90;;;;;;5026571;28;20787;-65
2022/12/03 05:32:58;;;;;;;17.60;12.32;;;5.80;99.90;;;;;;5030254;28;20792;-66
2022/12/03 05:35:24;;;;;;;16.80;11.90;;;5.60;99.90;;;;;;5029787;28;20221;-69
2022/12/03 05:37:50;;;;;;;18.33;12.00;;;5.70;99.90;;;;;;5029494;28;20189;-65
2022/12/03 05:40:15;;;;;;;16.60;12.20;;;5.50;99.90;;;;;;5028134;28;20571;-67
2022/12/03 05:42:53;;;;;;;17.67;13.20;;;5.60;99.90;;;;;;5030443;28;20178;-67
2022/12/03 05:45:30;;;;;;;19.75;13.18;;;5.50;99.90;;;;;;5026447;28;20337;-64
2022/12/03 05:47:57;;;;;;;16.40;12.20;;;5.80;99.90;;;;;;5028598;28;20246;-65
2022/12/03 05:50:26;;;;;;;17.63;13.38;;;5.70;99.90;;;;;;5029488;28;20194;-63
2022/12/03 05:52:52;;;;;;;17.25;12.98;;;5.20;99.90;;;;;;5027897;28;20209;-63
2022/12/03 05:55:18;;;;;;;15.80;12.63;;;4.90;99.90;;;;;;5030126;28;20251;-64
2022/12/03 05:57:44;;;;;;;20.00;11.85;;;5.40;99.90;;;;;;5044480;28;20190;-62
2022/12/03 06:00:17;;;;;;;17.38;12.02;;;5.50;99.90;;;;;;5028370;28;20189;-66
2022/12/03 06:02:43;;;;;;;17.58;12.50;;;5.40;99.90;;;;;;5027609;28;20177;-64
2022/12/03 06:05:10;;;;;;;17.20;12.20;;;5.60;99.90;;;;;;5022477;28;20208;-62
2022/12/03 06:07:36;;;;;;;17.90;13.40;;;5.70;99.90;;;;;;5017704;28;20672;-63
2022/12/03 06:10:04;;;;;;;19.37;13.67;;;5.70;99.90;;;;;;5021997;28;20929;-64
2022/12/03 06:12:30;;;;;;;16.38;12.27;;;5.80;99.90;;;;;;5031584;28;21254;-64
2022/12/03 06:14:56;;;;;;;18.30;13.80;;;5.60;99.90;;;;;;5027936;28;20213;-63
2022/12/03 06:17:21;;;;;;;19.00;12.80;;;5.80;99.90;;;;;;5033124;28;20194;-64
2022/12/03 06:19:47;;;;;;;16.27;12.10;;;5.50;99.90;;;;;;5020992;28;20193;-63
2022/12/03 06:22:13;;;;;;;15.03;11.90;;;5.70;99.90;;;;;;5023436;28;20197;-63
2022/12/03 06:24:38;;;;;;;18.03;12.60;;;5.80;99.90;;;;;;5026299;28;20212;-63
2022/12/03 06:27:04;;;;;;;17.20;13.40;;;5.80;99.90;;;;;;5027729;28;20217;-63
2022/12/03 06:29:30;;;;;;;17.20;12.10;;;5.70;99.90;;;;;;5028712;28;20189;-64
2022/12/03 06:31:56;;;;;;;18.50;12.97;;;5.40;99.90;;;;;;5023471;28;20211;-64
2022/12/03 06:34:21;;;;;;;20.60;12.70;;;5.30;99.90;;;;;;5034095;28;20219;-65
2022/12/03 06:36:49;;;;;;;18.50;13.63;;;5.50;99.90;;;;;;5032095;28;20451;-66
2022/12/03 06:39:15;;;;;;;20.05;14.32;;;5.30;99.90;;;;;;5029559;28;21034;-64
2022/12/03 06:41:41;;;;;;;19.60;13.07;;;5.60;99.90;;;;;;5035442;28;20224;-65
2022/12/03 06:44:06;;;;;;;15.97;12.90;;;5.40;99.90;;;;;;5027427;28;20235;-65
2022/12/03 06:46:32;;;;;;;16.40;11.90;;;5.40;99.90;;;;;;5019583;28;20299;-67
2022/12/03 06:48:58;;;;;;;20.20;13.83;;;5.40;99.90;;;;;;5025982;28;20225;-65
2022/12/03 06:51:24;;;;;;;18.57;13.33;;;5.60;99.90;;;;;;5026620;28;20204;-66
2022/12/03 06:53:49;;;;;;;17.20;12.67;;;5.10;99.90;;;;;;5028002;28;20460;-65
2022/12/03 06:56:15;;;;;;;17.80;12.43;;;5.60;99.90;;;;;;5026973;28;22160;-66
2022/12/03 06:58:40;;;;;;;20.17;14.00;;;5.50;99.90;;;;;;5024776;28;20188;-65
2022/12/03 07:01:06;;;;;;;16.80;12.33;;;5.80;99.90;;;;;;5024716;28;20214;-66
2022/12/03 07:03:32;;;;;;;17.60;12.67;;;5.40;99.90;;;;;;5027076;28;20189;-66
2022/12/03 07:05:57;;;;;;;17.03;12.43;;;5.50;99.90;;;;;;5022247;28;20660;-64
2022/12/03 07:08:23;;;;;;;18.37;14.40;;;5.60;99.90;;;;;;5024089;28;20194;-67
2022/12/03 07:10:48;;;;;;;18.13;12.93;;;5.50;99.90;;;;;;5026026;28;20180;-67
2022/12/03 07:13:14;;;;;;;17.77;13.27;;;5.40;99.90;;;;;;5029936;28;20214;-68
2022/12/03 07:15:40;;;;;;;19.17;12.60;;;5.40;99.90;;;;;;5026278;28;20210;-68
2022/12/03 07:18:05;;;;;;;18.87;13.47;;;5.70;99.90;;;;;;5025692;28;20190;-66
2022/12/03 07:20:31;;;;;;;19.20;13.70;;;5.30;99.90;;;;;;5027526;28;20190;-67
2022/12/03 07:22:56;;;;;;;18.00;12.10;;;6.00;99.90;;;;;;5019025;28;20198;-67
2022/12/03 07:25:22;;;;;;;18.07;12.33;;;5.60;99.90;;;;;;5049820;28;20785;-67
2022/12/03 07:27:48;;;;;;;20.73;12.93;;;5.60;99.90;;;;;;5029708;28;20190;-64
2022/12/03 07:30:14;;;;;;;16.93;13.13;;;5.60;99.90;;;;;;5031253;28;20185;-67
2022/12/03 07:32:40;;;;;;;19.75;13.35;;;6.00;99.90;;;;;;5024093;28;20882;-65
2022/12/03 07:35:06;;;;;;;21.83;15.63;;;5.40;99.90;;;;;;5031369;28;20683;-67
2022/12/03 07:37:35;;;;;;;17.30;13.23;;;5.60;99.90;;;;;;5029963;28;20448;-67
2022/12/03 07:40:01;;;;;;;20.33;13.75;;;6.30;99.90;;;;;;5032938;28;20186;-70
2022/12/03 07:42:27;;;;;;;18.65;12.80;;;5.90;99.90;;;;;;5032768;28;20647;-69
2022/12/03 07:44:52;;;;;;;18.20;13.50;;;5.80;99.90;;;;;;5032801;28;20210;-69
2022/12/03 07:47:18;;;;;;;17.80;13.13;;;5.80;99.90;;;;;;5029316;28;20241;-70
2022/12/03 07:49:44;;;;;;;18.43;14.30;;;6.10;99.90;;;;;;5032465;28;20189;-68
2022/12/03 07:52:10;;;;;;;23.93;14.00;;;6.20;99.90;;;;;;5028261;28;20216;-68
2022/12/03 07:54:35;;;;;;;21.90;14.20;;;6.00;99.90;;;;;;5030736;28;20297;-68
2022/12/03 07:57:01;;;;;;;20.57;13.40;;;5.50;99.90;;;;;;5031801;28;20491;-68
2022/12/03 07:59:27;;;;;;;21.40;12.53;;;5.80;99.90;;;;;;5027378;28;20285;-68
2022/12/03 08:01:52;;;;;;;21.70;14.20;;;5.70;99.90;;;;;;5036943;28;20236;-68
2022/12/03 08:04:20;;;;;;;19.27;13.23;;;6.00;99.90;;;;;;5032402;28;20521;-69
2022/12/03 08:06:46;;;;;;;22.35;14.68;;;5.70;99.90;;;;;;5031910;28;20218;-68
2022/12/03 08:09:12;;;;;;;17.30;12.77;;;5.70;99.90;;;;;;5031873;28;20184;-67
2022/12/03 08:11:38;;;;;;;19.48;13.52;;;5.80;99.90;;;;;;5031556;28;20177;-67
2022/12/03 08:14:14;;;;;;;22.93;14.20;;;5.90;99.90;;;;;;5029208;28;20201;-67
2022/12/03 08:16:42;;;;;;;20.88;14.02;;;5.60;99.90;;;;;;5029651;28;20694;-68
2022/12/03 08:19:12;;;;;;;21.27;13.70;;;5.90;99.90;;;;;;5030055;28;20197;-66
2022/12/03 08:21:39;;;;;;;21.20;14.05;;;5.70;99.90;;;;;;5031485;28;20193;-66
2022/12/03 08:24:20;;;;;;;18.63;13.65;;;5.70;99.90;;;;;;5049243;28;20217;-66
2022/12/03 08:26:47;;;;;;;20.70;13.00;;;5.80;99.90;;;;;;5029741;28;20359;-66
2022/12/03 08:29:17;;;;;;;18.05;13.57;;;5.80;99.90;;;;;;5025072;28;20580;-65
2022/12/03 08:31:55;;;;;;;19.40;13.52;;;5.70;99.90;;;;;;5029350;28;20198;-66
2022/12/03 08:34:24;;;;;;;21.10;13.93;;;5.70;99.90;;;;;;5029648;28;20201;-67
2022/12/03 08:36:56;;;;;;;18.58;12.93;;;5.70;99.90;;;;;;5031278;28;20193;-69
2022/12/03 08:39:42;;;;;;;17.48;12.45;;;6.00;99.90;;;;;;5032331;28;20185;-68
2022/12/03 08:45:17;;;;;;;19.13;12.88;;;5.70;99.90;;;;;;5031646;28;20220;-65
2022/12/03 08:47:42;;;;;;;17.90;12.93;;;5.60;99.90;;;;;;5023811;28;20197;-67
2022/12/03 08:50:29;;;;;;;18.47;13.17;;;5.70;99.90;;;;;;5052399;28;20189;-65
2022/12/03 08:53:35;;;;;;;20.52;13.57;;;5.60;99.90;;;;;;5032201;28;20192;-65
2022/12/03 08:56:02;;;;;;;20.13;13.07;;;5.80;99.90;;;;;;5035315;28;20192;-65
2022/12/03 08:58:43;;;;;;;20.85;12.70;;;5.80;99.90;;;;;;5031228;28;20589;-66
2022/12/03 09:01:11;;;;;;;20.77;13.60;;;5.60;99.90;;;;;;5030340;28;20311;-69
2022/12/03 09:03:49;;;;;;;21.90;14.25;;;5.60;99.90;;;;;;5033446;28;20211;-67
2022/12/03 09:06:15;;;;;;;20.40;13.07;;;5.50;99.90;;;;;;5045623;28;20204;-64
2022/12/03 09:08:41;;;;;;;21.10;13.27;;;5.50;99.90;;;;;;5031219;28;20221;-65
2022/12/03 09:11:07;;;;;;;21.50;12.93;;;5.70;99.90;;;;;;5027934;28;20511;-66
2022/12/03 09:13:32;;;;;;;22.20;14.47;;;5.70;99.90;;;;;;5030233;28;20240;-66
2022/12/03 09:15:58;;;;;;;19.13;12.63;;;5.60;99.90;;;;;;5031436;28;20673;-65
2022/12/03 09:18:24;;;;;;;21.00;12.90;;;5.60;99.90;;;;;;5023731;28;20280;-65
2022/12/03 09:20:49;;;;;;;25.33;16.73;;;5.80;99.90;;;;;;5029852;28;20687;-64
2022/12/03 09:23:15;;;;;;;19.57;14.73;;;5.60;99.90;;;;;;5026255;28;20243;-68
2022/12/03 09:25:40;;;;;;;21.90;13.80;;;5.80;99.90;;;;;;5032441;28;20748;-68
2022/12/03 09:28:07;;;;;;;24.27;13.57;;;5.70;99.90;;;;;;5026711;28;20235;-68
2022/12/03 09:30:32;;;;;;;20.80;13.07;;;5.50;99.90;;;;;;5030511;28;20188;-67
2022/12/03 09:32:59;;;;;;;22.93;12.87;;;5.40;99.90;;;;;;5030435;28;20196;-69
2022/12/03 09:35:25;;;;;;;20.35;13.15;;;5.20;99.90;;;;;;5027238;28;20272;-67
2022/12/03 09:37:51;;;;;;;20.45;13.27;;;5.40;99.90;;;;;;5030993;28;20229;-68
2022/12/03 09:40:17;;;;;;;22.33;13.98;;;5.50;99.90;;;;;;5033583;28;20594;-69
2022/12/03 09:42:43;;;;;;;21.27;14.50;;;5.50;99.90;;;;;;5032785;28;20192;-68
2022/12/03 09:45:12;;;;;;;21.20;13.07;;;5.40;99.90;;;;;;5034795;28;20338;-68
2022/12/03 09:47:41;;;;;;;19.45;13.73;;;5.40;99.90;;;;;;5030971;28;20298;-66
2022/12/03 09:50:12;;;;;;;19.13;13.32;;;5.40;99.90;;;;;;5038813;28;20681;-68
2022/12/03 09:52:37;;;;;;;19.85;12.30;;;5.30;99.90;;;;;;5026551;28;20184;-68
2022/12/03 09:55:12;;;;;;;26.43;15.10;;;5.20;99.90;;;;;;5035950;28;20207;-66
2022/12/03 09:57:38;;;;;;;18.98;12.70;;;5.40;99.90;;;;;;5037356;28;20281;-68
2022/12/03 10:00:14;;;;;;;17.40;11.43;;;5.40;99.90;;;;;;5033025;28;20279;-66
2022/12/03 10:02:41;;;;;;;20.33;11.55;;;5.40;99.90;;;;;;5031388;28;20189;-69
2022/12/03 10:05:07;;;;;;;19.13;11.48;;;5.30;99.90;;;;;;5046744;28;20551;-67
2022/12/03 10:07:33;;;;;;;20.08;12.30;;;5.40;99.90;;;;;;5032140;28;20221;-68
2022/12/03 10:09:59;;;;;;;19.50;13.47;;;5.50;99.90;;;;;;5033166;28;20180;-68
2022/12/03 10:12:24;;;;;;;18.00;11.33;;;5.00;99.90;;;;;;5029082;28;20452;-68
2022/12/03 10:14:51;;;;;;;17.50;11.80;;;5.80;99.90;;;;;;5034302;28;20449;-67
2022/12/03 10:17:17;;;;;;;16.98;11.75;;;5.60;99.90;;;;;;5030190;28;20668;-68
2022/12/03 10:19:43;;;;;;;14.53;11.30;;;5.80;99.90;;;;;;5035598;28;20185;-67
2022/12/03 10:22:09;;;;;;;17.30;11.45;;;5.90;99.90;;;;;;5031666;28;20238;-69
2022/12/03 10:24:36;;;;;;;17.83;12.07;;;5.80;99.90;;;;;;5031504;28;20999;-68
2022/12/03 10:27:01;;;;;;;16.17;11.43;;;5.60;99.90;;;;;;5031482;28;20608;-69
2022/12/03 10:29:32;;;;;;;17.63;11.80;;;5.60;99.90;;;;;;5024816;28;20264;-66
2022/12/03 10:32:07;;;;;;;17.48;11.55;;;5.80;99.90;;;;;;5035136;28;20199;-68
2022/12/03 10:34:48;;;;;;;18.35;11.70;;;5.70;99.90;;;;;;4997996;28;20317;-70
2022/12/03 10:37:17;;;;;;;15.83;11.30;;;6.00;99.90;;;;;;5031255;28;20279;-65
2022/12/03 10:40:00;;;;;;;16.90;12.13;;;5.90;99.90;;;;;;5028076;28;20528;-65
2022/12/03 10:42:29;;;;;;;16.42;12.18;;;5.50;99.90;;;;;;5032400;28;20208;-67
2022/12/03 10:45:17;;;;;;;16.75;11.73;;;5.80;99.90;;;;;;5034734;28;20294;-66
2022/12/03 10:48:02;;;;;;;16.85;11.57;;;5.60;99.90;;;;;;5034724;28;20185;-67
2022/12/03 10:50:29;;;;;;;16.55;12.10;;;5.40;99.90;;;;;;5039046;28;20185;-66
2022/12/03 10:52:55;;;;;;;18.02;12.70;;;5.40;99.90;;;;;;5029757;28;20179;-67
2022/12/03 10:55:20;;;;;;;18.87;12.50;;;5.30;99.90;;;;;;5026905;28;20289;-67
2022/12/03 10:57:46;;;;;;;16.47;12.07;;;5.30;99.90;;;;;;5042660;28;20449;-66
2022/12/03 11:00:17;;;;;;;16.42;11.93;;;5.40;99.90;;;;;;5030402;28;20771;-65
2022/12/03 11:02:44;;;;;;;19.45;11.65;;;5.10;99.90;;;;;;5035397;28;20184;-65
2022/12/03 11:05:16;;;;;;;17.65;11.90;;;5.20;99.90;;;;;;5031965;28;20263;-64
2022/12/03 11:07:43;;;;;;;18.17;10.77;;;5.10;99.90;;;;;;5032072;28;20216;-66
2022/12/03 11:10:14;;;;;;;16.42;12.20;;;5.20;99.90;;;;;;5033095;28;20274;-66
2022/12/03 11:12:41;;;;;;;17.65;12.20;;;5.10;99.90;;;;;;5033117;28;20273;-68
2022/12/03 11:15:14;;;;;;;16.10;11.90;;;5.10;99.90;;;;;;5033839;28;20227;-67
2022/12/03 11:17:43;;;;;;;16.02;11.40;;;5.20;99.90;;;;;;5034742;28;20193;-65
2022/12/03 11:20:32;;;;;;;16.58;11.90;;;5.10;99.90;;;;;;5033226;28;20291;-65
2022/12/03 11:22:58;;;;;;;18.10;12.38;;;5.20;99.90;;;;;;5036299;28;20254;-66
2022/12/03 11:25:23;;;;;;;15.38;10.60;;;4.90;99.90;;;;;;5034291;28;20205;-66
2022/12/03 11:28:27;;;;;;;18.37;11.37;;;5.50;99.90;;;;;;5040189;28;20233;-67
2022/12/03 11:31:10;;;;;;;18.20;12.80;;;5.00;99.90;;;;;;5031430;28;20225;-66
2022/12/03 11:33:40;;;;;;;17.00;11.23;;;4.90;99.90;;;;;;5037535;28;20675;-66
2022/12/03 11:36:05;;;;;;;17.98;11.32;;;5.10;99.90;;;;;;5044740;28;20543;-66
2022/12/03 11:38:40;;;;;;;18.70;11.70;;;5.20;99.90;;;;;;5027866;28;20206;-65
2022/12/03 11:41:22;;;;;;;17.60;11.45;;;5.30;99.90;;;;;;5031789;28;20220;-65
2022/12/03 11:43:51;;;;;;;19.58;11.82;;;5.20;99.90;;;;;;5018952;28;20266;-67
2022/12/03 11:46:41;;;;;;;16.83;10.68;;;5.20;99.90;;;;;;5032579;28;20226;-66
2022/12/03 11:49:29;;;;;;;16.45;11.93;;;5.10;99.90;;;;;;5027579;28;20716;-67
2022/12/03 11:51:56;;;;;;;22.27;14.70;;;5.20;99.90;;;;;;5037848;28;20184;-67
2022/12/03 11:54:23;;;;;;;17.40;12.40;;;4.80;99.90;;;;;;5022187;28;20239;-68
2022/12/03 11:56:50;;;;;;;21.42;13.65;;;5.30;99.90;;;;;;5030376;28;20183;-68
2022/12/03 11:59:17;;;;;;;16.23;10.82;;;5.30;99.90;;;;;;5033188;28;20294;-67
2022/12/03 12:01:43;;;;;;;16.95;11.07;;;5.20;99.90;;;;;;5024870;28;20208;-69
2022/12/03 12:04:32;;;;;;;16.40;10.27;;;5.20;99.90;;;;;;5028160;28;20519;-69
2022/12/03 12:06:58;;;;;;;17.85;10.93;;;5.40;99.90;;;;;;5024963;28;20212;-68
2022/12/03 12:09:52;;;;;;;19.07;10.50;;;5.30;99.90;;;;;;5029622;28;20206;-67
2022/12/03 12:12:39;;;;;;;15.60;12.10;;;5.60;99.90;;;;;;5029796;28;20270;-68
2022/12/03 12:15:40;;;;;;;14.70;10.70;;;5.50;99.90;;;;;;5028110;28;20627;-68
2022/12/03 12:18:33;;;;;;;17.88;11.75;;;5.40;99.90;;;;;;5025999;28;20220;-69
2022/12/03 12:21:41;;;;;;;18.05;11.30;;;5.40;99.90;;;;;;5028180;28;20191;-67
2022/12/03 12:24:46;;;;;;;15.20;11.18;;;5.30;99.90;;;;;;5028334;28;20209;-67
2022/12/03 12:27:22;;;;;;;13.55;10.00;;;5.70;99.90;;;;;;5028072;28;20212;-68
2022/12/03 12:29:56;;;;;;;15.23;10.07;;;6.00;99.90;;;;;;5031099;28;20189;-67
2022/12/03 12:32:30;;;;;;;12.57;9.35;;;5.10;99.90;;;;;;5031238;28;20544;-67
2022/12/03 12:35:12;;;;;;;17.42;10.68;;;5.20;99.90;;;;;;5027691;28;20213;-68
2022/12/03 12:37:48;;;;;;;16.67;10.52;;;5.30;99.90;;;;;;5026007;28;20631;-68
2022/12/03 12:40:16;;;;;;;16.50;10.57;;;5.20;99.90;;;;;;5024524;28;20197;-68
2022/12/03 12:42:51;;;;;;;13.63;9.82;;;5.00;99.90;;;;;;5028663;28;20191;-66
2022/12/03 12:45:26;;;;;;;15.88;10.93;;;5.10;99.90;;;;;;5029090;28;20211;-67
2022/12/03 12:48:20;;;;;;;15.50;10.18;;;4.80;99.90;;;;;;5029984;28;20261;-68
2022/12/03 12:50:49;;;;;;;17.88;10.68;;;5.20;99.90;;;;;;5027964;28;20239;-68
2022/12/03 12:53:21;;;;;;;18.20;11.88;;;4.90;99.90;;;;;;5026052;28;20182;-66
2022/12/03 12:55:47;;;;;;;14.70;9.38;;;5.00;99.90;;;;;;5030226;28;20192;-67
2022/12/03 12:58:17;;;;;;;16.00;10.10;;;5.00;99.90;;;;;;5028671;28;20179;-67
2022/12/03 13:00:47;;;;;;;11.65;8.98;;;5.00;99.90;;;;;;5029055;28;20180;-67
2022/12/03 13:03:15;;;;;;;15.48;10.40;;;4.90;99.90;;;;;;5028185;28;20185;-67
2022/12/03 13:05:44;;;;;;;14.90;9.93;;;5.10;99.90;;;;;;5028163;28;20263;-67
2022/12/03 13:08:26;;;;;;;14.52;9.93;;;4.80;99.90;;;;;;5028619;28;20190;-68
2022/12/03 13:10:58;;;;;;;17.25;11.02;;;4.90;99.90;;;;;;5027024;28;20193;-66